Impacts METAR Board
IDs:

KEWR - Newark Intl, NJ, US

Updated at: 0100 UTC 28 May 2018
Potential Impact None Slight Moderate High
Time 27/13Z 27/14Z 27/15Z 27/16Z 27/17Z 27/18Z 27/19Z 27/20Z 27/21Z 27/22Z 27/23Z 28/00Z 28/01Z
Temp64 64 64 64 65 64 63 62 61 60 60 60 59
Dewpt62 62 62 62 61 59 58 57 55 55 55 54 53
Altim29.99 30.00 30.02 30.01 30.02 30.03 30.03 30.03 30.04 30.04 30.05 30.06 30.06
VIS3 7 5 8 10 10 9 10 10 9 10 10 10
CIG12 8 8 8 9 14 10 14 15 15 15 15 15
CoverOVCOVCOVCOVCOVCOVCOVCOVCOVCOVCOVCOVCOVC
FltCatMVFRIFRIFRIFRIFRMVFRMVFRMVFRMVFRMVFRMVFRMVFRMVFR
WX+RA BR-RA-RA BR-RA------------------
WDir40403030305040504050405040
WSpd13 8 7 12 13 10 11 17 16 14 12 9 13
WGst-- -- -- -- -- -- -- 23 21 -- -- -- --
Raw hourly METARs
KEWR 271251Z 04013KT 3SM +RA BR FEW007 OVC012 18/17 A2999 RMK AO2 TSE05 SLP153 P0025 T01780167
KEWR 271358Z 04008KT 7SM -RA BKN008 OVC014 18/17 A3000 RMK AO2 P0000 T01780167
KEWR 271451Z 03007KT 5SM -RA BR OVC008 18/17 A3002 RMK AO2 SLP164 P0001 60044 T01780167 53015
KEWR 271551Z 03012KT 8SM -RA OVC008 18/17 A3001 RMK AO2 SLP163 CIG 007V009 P0002 T01780167
KEWR 271651Z 03013KT 10SM OVC009 18/16 A3002 RMK AO2 RAE14 SLP165 CIG 008V010 P0000 T01830161
KEWR 271751Z 05010KT 10SM FEW010 OVC014 18/15 A3003 RMK AO2 SLP170 60046 T01780150 10189 20172 53006
KEWR 271851Z 04011KT 9SM BKN010 OVC014 17/14 A3003 RMK AO2 SLP167 T01720144
KEWR 271951Z 05017G23KT 10SM FEW010 OVC014 17/14 A3003 RMK AO2 SLP167 T01670139
KEWR 272051Z 04016G21KT 10SM OVC015 16/13 A3004 RMK AO2 PK WND 05027/2022 SLP171 T01610128 53001
KEWR 272151Z 05014KT 9SM OVC015 16/13 A3004 RMK AO2 SLP173 T01560128
KEWR 272251Z 04012KT 10SM OVC015 16/13 A3005 RMK AO2 SLP175 T01560128
KEWR 272351Z 05009KT 10SM OVC015 16/12 A3006 RMK AO2 SLP178 T01560122 10178 20156 52007
KEWR 280051Z 04013KT 10SM OVC015 15/12 A3006 RMK AO2 SLP180 T01500117



Page loaded:  01:34 UTC  |   06:34 PM Pacific  |   07:34 PM Mountain  |   08:34 PM Central  |   09:34 PM Eastern

 

ADVISORIES

FORECASTS

FORECASTS

OBSERVATIONS

USER TOOLS

ABOUT US